createdAt,value
2023-03-27T00:00:31.630Z,91023.06
2023-03-27T00:03:04.005Z,91015.91
2023-03-27T00:05:37.000Z,91017.25
2023-03-27T00:08:10.093Z,91011.75
2023-03-27T00:10:42.520Z,91008.13
2023-03-27T00:13:15.006Z,91014.75
2023-03-27T00:15:47.253Z,91012.63
2023-03-27T00:18:19.487Z,90995.28
2023-03-27T00:20:51.851Z,90981.28
2023-03-27T00:23:25.291Z,90998.38
2023-03-27T00:25:58.690Z,90999.03
2023-03-27T00:28:31.211Z,91000.38
2023-03-27T00:31:03.789Z,90998.84
2023-03-27T00:33:36.903Z,90997.38
2023-03-27T00:36:10.334Z,90991.41
2023-03-27T00:38:45.024Z,90996.59
2023-03-27T00:41:17.452Z,90993.25
2023-03-27T00:43:53.391Z,90986.44
2023-03-27T00:46:33.215Z,90981.31
2023-03-27T00:49:09.778Z,90963.16
2023-03-27T00:51:46.021Z,90956.66
2023-03-27T00:54:25.666Z,90963.38
2023-03-27T00:57:01.701Z,90954.13
2023-03-27T00:59:39.242Z,90950.78
2023-03-27T01:02:13.085Z,90955.69
2023-03-27T01:04:46.266Z,90950.66
2023-03-27T01:07:19.945Z,90944.41
2023-03-27T01:09:53.185Z,90946.13
2023-03-27T01:12:36.257Z,90933.63
2023-03-27T01:15:32.197Z,90930.16
2023-03-27T01:18:27.606Z,90919.78
2023-03-27T01:21:36.590Z,90919.00
2023-03-27T01:24:53.797Z,90905.88
2023-03-27T01:27:51.739Z,90906.69
2023-03-27T01:30:29.271Z,90909.72
2023-03-27T01:33:20.849Z,90915.69
2023-03-27T01:36:16.517Z,90909.16
2023-03-27T01:39:20.380Z,90905.94
2023-03-27T01:42:00.930Z,90900.75
2023-03-27T01:44:43.450Z,90889.63
2023-03-27T01:47:41.104Z,90887.63
2023-03-27T01:50:19.577Z,90881.66
2023-03-27T01:52:56.131Z,90864.53
2023-03-27T01:55:33.731Z,90884.06
2023-03-27T01:58:13.151Z,90885.00
2023-03-27T02:01:03.863Z,90884.97
2023-03-27T02:03:40.915Z,90867.84
2023-03-27T02:06:17.016Z,90872.84
2023-03-27T02:08:57.965Z,90865.88
2023-03-27T02:11:44.335Z,90860.38
2023-03-27T02:14:21.110Z,90880.22
2023-03-27T02:16:57.489Z,90873.69
2023-03-27T02:19:35.831Z,90868.75
2023-03-27T02:22:08.226Z,90856.34
2023-03-27T02:24:53.904Z,90853.06
2023-03-27T02:27:35.420Z,90852.09
2023-03-27T02:30:13.899Z,90838.31
2023-03-27T02:32:53.335Z,90827.00
2023-03-27T02:35:40.673Z,90815.34
2023-03-27T02:38:19.201Z,90810.16
2023-03-27T02:41:05.126Z,90809.06
2023-03-27T02:44:00.984Z,90801.81
2023-03-27T02:47:03.819Z,90791.25
2023-03-27T02:49:41.302Z,90762.38
2023-03-27T02:52:18.174Z,90773.81
2023-03-27T02:54:55.393Z,90777.09
2023-03-27T02:57:31.285Z,90769.88
2023-03-27T03:00:36.765Z,90770.25
2023-03-27T03:03:36.820Z,90759.28
2023-03-27T03:06:17.663Z,90771.69
2023-03-27T03:08:50.123Z,90766.53
2023-03-27T03:11:22.457Z,90760.25
2023-03-27T03:13:55.023Z,90750.84
2023-03-27T03:16:28.550Z,90727.88
2023-03-27T03:19:01.200Z,90729.28
2023-03-27T03:21:34.211Z,90730.72
2023-03-27T03:24:07.070Z,90730.19
2023-03-27T03:26:39.680Z,90730.09
2023-03-27T03:29:13.517Z,90728.56
2023-03-27T03:31:54.765Z,90725.84
2023-03-27T03:34:29.676Z,90715.44
2023-03-27T03:37:02.089Z,90729.44
2023-03-27T03:39:36.849Z,90728.81
2023-03-27T03:42:09.412Z,90726.75
2023-03-27T03:44:56.689Z,90735.97
2023-03-27T03:47:29.763Z,90726.19
2023-03-27T03:50:02.232Z,90725.84
2023-03-27T03:52:37.234Z,90722.59
2023-03-27T03:55:11.436Z,90718.69
2023-03-27T03:57:46.704Z,90726.91
2023-03-27T04:00:26.116Z,90724.81
2023-03-27T04:03:03.732Z,90721.06
2023-03-27T04:05:39.601Z,90736.06
2023-03-27T04:08:12.015Z,90726.44
2023-03-27T04:10:49.951Z,90730.22
2023-03-27T04:13:42.270Z,90727.06
2023-03-27T04:16:30.660Z,90725.31
2023-03-27T04:19:09.669Z,90724.03
2023-03-27T04:21:46.576Z,90725.72
2023-03-27T04:24:20.059Z,90715.84
2023-03-27T04:26:54.489Z,90719.84
2023-03-27T04:29:33.540Z,90709.13
2023-03-27T04:32:06.078Z,90711.41
2023-03-27T04:34:49.477Z,90701.63
2023-03-27T04:37:42.309Z,90694.59
2023-03-27T04:40:29.286Z,90692.88
2023-03-27T04:43:01.816Z,90694.59
2023-03-27T04:45:34.570Z,90682.44
2023-03-27T04:48:09.509Z,90682.69
2023-03-27T04:50:43.558Z,90685.53
2023-03-27T04:53:19.798Z,90688.06
2023-03-27T04:55:54.135Z,90677.53
2023-03-27T04:58:27.688Z,90679.94
2023-03-27T05:01:02.767Z,90678.44
2023-03-27T05:03:54.029Z,90676.50
2023-03-27T05:06:40.548Z,90675.41
2023-03-27T05:09:17.412Z,90674.19
2023-03-27T05:11:50.321Z,90651.50
2023-03-27T05:14:24.206Z,90669.72
2023-03-27T05:17:00.145Z,90662.53
2023-03-27T05:19:32.903Z,90666.13
2023-03-27T05:22:08.395Z,90647.56
2023-03-27T05:24:42.964Z,90637.00
2023-03-27T05:27:15.454Z,90639.94
2023-03-27T05:29:50.717Z,90629.19
2023-03-27T05:32:23.152Z,90619.41
2023-03-27T05:35:04.837Z,90621.72
2023-03-27T05:37:47.246Z,90592.72
2023-03-27T05:40:38.649Z,90572.75
2023-03-27T05:43:11.484Z,90560.59
2023-03-27T05:45:44.306Z,90570.13
2023-03-27T05:48:16.721Z,90541.59
2023-03-27T05:50:50.024Z,90562.31
2023-03-27T05:53:28.122Z,90535.22
2023-03-27T05:56:24.700Z,90517.69
2023-03-27T05:59:03.424Z,90518.59
2023-03-27T06:01:39.143Z,90501.41
2023-03-27T06:04:11.732Z,90499.47
2023-03-27T06:06:58.345Z,90484.56
2023-03-27T06:09:31.866Z,90481.19
2023-03-27T06:12:26.946Z,90492.47
2023-03-27T06:15:10.216Z,90482.53
2023-03-27T06:17:48.021Z,90465.78
2023-03-27T06:20:22.028Z,90448.94
2023-03-27T06:22:59.807Z,90459.19
2023-03-27T06:25:38.521Z,90436.25
2023-03-27T06:28:11.587Z,90443.81
2023-03-27T06:30:51.050Z,90462.03
2023-03-27T06:33:30.793Z,90462.53
2023-03-27T06:36:06.564Z,90478.63
2023-03-27T06:38:41.407Z,90483.13
2023-03-27T06:41:14.603Z,90465.84
2023-03-27T06:44:02.218Z,90462.88
2023-03-27T06:46:45.539Z,90471.97
2023-03-27T06:49:38.562Z,90477.56
2023-03-27T06:52:17.510Z,90491.13
2023-03-27T06:54:51.126Z,90485.56
2023-03-27T06:57:24.120Z,90486.19
2023-03-27T07:00:10.225Z,90492.22
2023-03-27T07:03:02.824Z,90491.88
2023-03-27T07:06:10.911Z,90477.56
2023-03-27T07:08:51.083Z,90493.16
2023-03-27T07:11:24.747Z,90484.84
2023-03-27T07:14:03.969Z,90492.03
2023-03-27T07:16:36.697Z,90488.09
2023-03-27T07:19:09.512Z,90470.09
2023-03-27T07:21:46.168Z,90484.44
2023-03-27T07:24:18.803Z,90513.03
2023-03-27T07:26:51.329Z,90499.75
2023-03-27T07:29:37.061Z,90503.47
2023-03-27T07:32:09.700Z,90513.69
2023-03-27T07:34:48.924Z,90521.56
2023-03-27T07:37:38.137Z,90522.22
2023-03-27T07:40:37.244Z,90521.63
2023-03-27T07:43:41.570Z,90526.22
2023-03-27T07:46:15.417Z,90518.50
2023-03-27T07:48:48.456Z,90516.75
2023-03-27T07:51:23.004Z,90518.16
2023-03-27T07:53:57.910Z,90506.25
2023-03-27T07:56:35.338Z,90502.91
2023-03-27T07:59:44.544Z,90492.16
2023-03-27T08:02:24.381Z,90489.50
2023-03-27T08:04:56.962Z,90494.38
2023-03-27T08:07:29.624Z,90483.84
2023-03-27T08:10:06.769Z,90472.34
2023-03-27T08:12:50.985Z,90474.25
2023-03-27T08:15:24.293Z,90464.72
2023-03-27T08:17:59.520Z,90471.44
2023-03-27T08:20:35.389Z,90462.09
2023-03-27T08:23:08.219Z,90456.50
2023-03-27T08:26:13.226Z,90458.44
2023-03-27T08:28:53.462Z,90449.41
2023-03-27T08:31:30.613Z,90470.75
2023-03-27T08:34:08.952Z,90468.91
2023-03-27T08:36:51.910Z,90471.59
2023-03-27T08:39:24.333Z,90489.78
2023-03-27T08:42:18.931Z,90483.72
2023-03-27T08:45:13.665Z,90462.09
2023-03-27T08:47:58.068Z,90460.44
2023-03-27T08:50:38.668Z,90458.59
2023-03-27T08:53:31.552Z,90449.47
2023-03-27T08:56:07.669Z,90436.16
2023-03-27T08:58:45.465Z,90436.16
2023-03-27T09:01:40.445Z,90428.00
2023-03-27T09:04:31.097Z,90416.31
2023-03-27T09:07:09.187Z,90425.06
2023-03-27T09:09:58.578Z,90419.38
2023-03-27T09:12:47.662Z,90442.53
2023-03-27T09:15:25.611Z,90411.13
2023-03-27T09:18:04.250Z,90429.13
2023-03-27T09:20:42.158Z,90445.34
2023-03-27T09:23:23.206Z,90454.75
2023-03-27T09:26:19.996Z,90444.03
2023-03-27T09:29:26.143Z,90452.44
2023-03-27T09:32:13.412Z,90444.88
2023-03-27T09:34:47.341Z,90444.97
2023-03-27T09:37:19.739Z,90444.34
2023-03-27T09:39:54.842Z,90436.25
2023-03-27T09:42:38.092Z,90434.47
2023-03-27T09:45:12.931Z,90419.25
2023-03-27T09:48:15.832Z,90429.59
2023-03-27T09:50:49.548Z,90413.53
2023-03-27T09:53:57.549Z,90410.44
2023-03-27T09:56:37.121Z,90421.06
2023-03-27T09:59:23.326Z,90424.50
2023-03-27T10:01:57.522Z,90421.41
2023-03-27T10:04:30.676Z,90424.75
2023-03-27T10:07:07.684Z,90418.13
2023-03-27T10:10:08.450Z,90430.06
2023-03-27T10:12:59.688Z,90438.81
2023-03-27T10:15:41.319Z,90422.84
2023-03-27T10:18:24.130Z,90428.47
2023-03-27T10:21:01.747Z,90416.69
2023-03-27T10:23:41.264Z,90410.03
2023-03-27T10:26:18.362Z,90402.56
2023-03-27T10:29:01.014Z,90388.84
2023-03-27T10:31:49.926Z,90401.38
2023-03-27T10:34:52.578Z,90392.78
2023-03-27T10:37:50.059Z,90381.41
2023-03-27T10:40:44.695Z,90361.59
2023-03-27T10:43:28.439Z,90374.28
2023-03-27T10:46:05.231Z,90377.25
2023-03-27T10:48:49.696Z,90363.75
2023-03-27T10:51:46.843Z,90349.41
2023-03-27T10:54:46.239Z,90340.91
2023-03-27T10:57:22.858Z,90340.38
2023-03-27T10:59:59.995Z,90344.50
2023-03-27T11:02:49.215Z,90346.59
2023-03-27T11:05:28.223Z,90351.72
2023-03-27T11:08:08.200Z,90354.91
2023-03-27T11:10:43.410Z,90344.28
2023-03-27T11:13:23.403Z,90356.03
2023-03-27T11:16:07.188Z,90380.16
2023-03-27T11:19:26.168Z,90411.66
2023-03-27T11:22:42.342Z,90412.13
2023-03-27T11:25:25.631Z,90431.84
2023-03-27T11:28:05.387Z,90441.69
2023-03-27T11:30:40.507Z,90438.56
2023-03-27T11:33:28.919Z,90428.00
2023-03-27T11:36:31.814Z,90428.78
2023-03-27T11:39:42.036Z,90446.50
2023-03-27T11:42:18.119Z,90459.63
2023-03-27T11:44:53.438Z,90476.69
2023-03-27T11:47:59.657Z,90485.09
2023-03-27T11:50:42.881Z,90515.91
2023-03-27T11:53:43.091Z,90503.97
2023-03-27T11:56:34.389Z,90563.06
2023-03-27T11:59:38.536Z,90575.66
2023-03-27T12:02:30.398Z,90595.63
2023-03-27T12:05:16.626Z,90608.28
2023-03-27T12:07:59.132Z,90601.34
2023-03-27T12:10:35.675Z,90619.56
2023-03-27T12:14:01.611Z,90616.38
2023-03-27T12:17:08.288Z,90635.53
2023-03-27T12:20:17.237Z,90644.78
2023-03-27T12:23:02.386Z,90642.94
2023-03-27T12:26:32.709Z,90636.16
2023-03-27T12:29:28.785Z,90626.56
2023-03-27T12:32:19.506Z,90613.31
2023-03-27T12:34:54.338Z,90609.41
2023-03-27T12:37:34.022Z,90587.50
2023-03-27T12:40:27.282Z,90575.91
2023-03-27T12:43:25.893Z,90557.53
2023-03-27T12:46:31.117Z,90515.13
2023-03-27T12:49:46.856Z,90489.84
2023-03-27T12:52:26.827Z,90503.09
2023-03-27T12:55:31.148Z,90484.22
2023-03-27T12:58:05.387Z,90469.91
2023-03-27T13:01:10.252Z,90473.41
2023-03-27T13:04:22.846Z,90468.03
2023-03-27T13:07:05.045Z,90449.88
2023-03-27T13:10:20.949Z,90458.69
2023-03-27T13:13:08.489Z,90445.19
2023-03-27T13:15:56.844Z,90440.75
2023-03-27T13:19:16.378Z,90431.59
2023-03-27T13:22:19.038Z,90445.47
2023-03-27T13:25:16.325Z,90450.69
2023-03-27T13:28:13.320Z,90461.72
2023-03-27T13:30:58.742Z,90466.75
2023-03-27T13:34:12.226Z,90479.34
2023-03-27T13:36:48.052Z,90484.94
2023-03-27T13:39:24.054Z,90479.13
2023-03-27T13:42:12.931Z,90477.22
2023-03-27T13:44:59.858Z,90473.97
2023-03-27T13:48:13.486Z,90458.81
2023-03-27T13:51:33.065Z,90444.59
2023-03-27T13:54:47.064Z,90440.31
2023-03-27T13:57:48.157Z,90429.38
2023-03-27T14:00:50.717Z,90425.47
2023-03-27T14:03:58.249Z,90432.25
2023-03-27T14:07:15.801Z,90423.47
2023-03-27T14:10:15.739Z,90425.88
2023-03-27T14:13:06.957Z,90425.25
2023-03-27T14:16:33.088Z,90415.63
2023-03-27T14:19:52.106Z,90412.47
2023-03-27T14:22:35.357Z,90413.22
2023-03-27T14:25:14.412Z,90410.81
2023-03-27T14:28:08.327Z,90413.47
2023-03-27T14:30:45.044Z,90419.13
2023-03-27T14:33:38.469Z,90414.94
2023-03-27T14:36:15.866Z,90412.84
2023-03-27T14:38:49.678Z,90420.63
2023-03-27T14:41:34.826Z,90431.44
2023-03-27T14:44:07.962Z,90420.94
2023-03-27T14:46:47.543Z,90419.50
2023-03-27T14:49:24.766Z,90419.91
2023-03-27T14:52:06.999Z,90418.78
2023-03-27T14:55:17.896Z,90411.38
2023-03-27T14:57:57.348Z,90411.38
2023-03-27T15:00:36.855Z,90394.59
2023-03-27T15:03:15.446Z,90404.66
2023-03-27T15:05:58.425Z,90405.03
2023-03-27T15:08:36.468Z,90382.59
2023-03-27T15:11:47.972Z,90378.78
2023-03-27T15:14:29.549Z,90382.75
2023-03-27T15:17:06.321Z,90396.38
2023-03-27T15:19:47.760Z,90394.03
2023-03-27T15:22:26.699Z,90398.66
2023-03-27T15:25:02.550Z,90392.66
2023-03-27T15:27:38.909Z,90387.25
2023-03-27T15:30:25.436Z,90374.88
2023-03-27T15:33:01.290Z,90383.28
2023-03-27T15:35:35.876Z,90382.22
2023-03-27T15:38:13.343Z,90375.28
2023-03-27T15:40:45.951Z,90373.22
2023-03-27T15:43:21.314Z,90376.75
2023-03-27T15:46:14.108Z,90373.63
2023-03-27T15:48:54.544Z,90376.53
2023-03-27T15:51:30.929Z,90382.50
2023-03-27T15:54:23.862Z,90384.94
2023-03-27T15:57:10.917Z,90389.28
2023-03-27T15:59:51.686Z,90395.38
2023-03-27T16:02:27.659Z,90401.84
2023-03-27T16:05:00.510Z,90390.13
2023-03-27T16:07:43.571Z,90403.66
2023-03-27T16:10:29.168Z,90404.97
2023-03-27T16:13:05.770Z,90411.06
2023-03-27T16:15:40.606Z,90404.59
2023-03-27T16:18:18.501Z,90395.41
2023-03-27T16:20:50.792Z,90396.94
2023-03-27T16:23:23.094Z,90402.47
2023-03-27T16:25:56.087Z,90394.56
2023-03-27T16:28:29.405Z,90393.81
2023-03-27T16:31:10.580Z,90407.69
2023-03-27T16:33:44.897Z,90410.59
2023-03-27T16:36:20.426Z,90409.00
2023-03-27T16:38:52.833Z,90401.59
2023-03-27T16:41:25.090Z,90425.41
2023-03-27T16:43:57.443Z,90423.44
2023-03-27T16:46:31.088Z,90427.75
2023-03-27T16:49:04.024Z,90434.28
2023-03-27T16:51:36.559Z,90431.47
2023-03-27T16:54:09.584Z,90436.78
2023-03-27T16:56:41.943Z,90439.59
2023-03-27T16:59:15.379Z,90442.00
2023-03-27T17:01:47.733Z,90445.16
2023-03-27T17:04:20.819Z,90447.22
2023-03-27T17:06:53.119Z,90441.38
2023-03-27T17:09:26.260Z,90453.59
2023-03-27T17:11:58.974Z,90447.00
2023-03-27T17:14:31.234Z,90443.44
2023-03-27T17:17:03.563Z,90443.09
2023-03-27T17:19:36.602Z,90455.38
2023-03-27T17:22:11.193Z,90455.38
2023-03-27T17:24:55.208Z,90454.78
2023-03-27T17:27:29.066Z,90463.25
2023-03-27T17:30:04.223Z,90468.19
2023-03-27T17:32:36.631Z,90472.38
2023-03-27T17:35:10.165Z,90473.34
2023-03-27T17:37:42.566Z,90473.75
2023-03-27T17:40:14.988Z,90479.53
2023-03-27T17:42:47.260Z,90480.59
2023-03-27T17:45:24.184Z,90488.47
2023-03-27T17:47:56.849Z,90489.47
2023-03-27T17:50:30.102Z,90484.28
2023-03-27T17:53:02.526Z,90492.28
2023-03-27T17:55:36.771Z,90479.63
2023-03-27T17:58:10.076Z,90482.78
2023-03-27T18:00:42.688Z,90484.44
2023-03-27T18:03:15.694Z,90479.94
2023-03-27T18:05:48.688Z,90481.72
2023-03-27T18:08:21.000Z,90480.31
2023-03-27T18:10:53.306Z,90478.59
2023-03-27T18:13:26.733Z,90489.03
2023-03-27T18:15:59.433Z,90508.13
2023-03-27T18:18:32.032Z,90523.09
2023-03-27T18:21:05.942Z,90551.66
2023-03-27T18:23:46.146Z,90558.06
2023-03-27T18:26:19.340Z,90578.69
2023-03-27T18:28:52.059Z,90568.97
2023-03-27T18:31:24.840Z,90576.72
2023-03-27T18:33:57.208Z,90571.09
2023-03-27T18:36:30.798Z,90585.50
2023-03-27T18:39:08.187Z,90574.56
2023-03-27T18:41:40.489Z,90583.47
2023-03-27T18:44:13.381Z,90570.22
2023-03-27T18:46:45.786Z,90602.88
2023-03-27T18:49:25.041Z,90597.66
2023-03-27T18:51:58.368Z,90599.88
2023-03-27T18:54:31.001Z,90610.84
2023-03-27T18:57:03.927Z,90621.28
2023-03-27T18:59:36.310Z,90636.69
2023-03-27T19:02:09.081Z,90635.91
2023-03-27T19:04:41.673Z,90644.00
2023-03-27T19:07:15.925Z,90648.13
2023-03-27T19:09:48.223Z,90646.03
2023-03-27T19:12:20.855Z,90658.31
2023-03-27T19:15:19.889Z,90662.53
2023-03-27T19:18:12.204Z,90662.19
2023-03-27T19:21:03.221Z,90669.84
2023-03-27T19:24:08.510Z,90670.47
2023-03-27T19:26:46.890Z,90665.41
2023-03-27T19:29:20.426Z,90676.72
2023-03-27T19:31:53.704Z,90678.47
2023-03-27T19:34:40.096Z,90663.97
2023-03-27T19:37:14.952Z,90680.59
2023-03-27T19:39:47.968Z,90669.38
2023-03-27T19:42:20.298Z,90672.50
2023-03-27T19:44:52.583Z,90678.81
2023-03-27T19:47:24.904Z,90680.97
2023-03-27T19:49:57.943Z,90692.44
2023-03-27T19:52:46.176Z,90686.69
2023-03-27T19:55:25.150Z,90690.34
2023-03-27T19:57:57.472Z,90695.38
2023-03-27T20:00:31.612Z,90697.66
2023-03-27T20:03:04.739Z,90691.25
2023-03-27T20:05:39.135Z,90685.19
2023-03-27T20:08:11.447Z,90697.81
2023-03-27T20:10:46.890Z,90710.09
2023-03-27T20:13:19.517Z,90702.84
2023-03-27T20:15:52.743Z,90702.19
2023-03-27T20:18:25.114Z,90702.81
2023-03-27T20:21:01.427Z,90698.47
2023-03-27T20:23:36.876Z,90701.84
2023-03-27T20:26:11.011Z,90712.38
2023-03-27T20:28:46.908Z,90711.50
2023-03-27T20:31:20.285Z,90705.75
2023-03-27T20:33:52.814Z,90710.22
2023-03-27T20:36:25.473Z,90715.22
2023-03-27T20:38:59.417Z,90716.91
2023-03-27T20:41:32.784Z,90711.47
2023-03-27T20:44:14.074Z,90709.16
2023-03-27T20:46:50.331Z,90712.72
2023-03-27T20:51:58.992Z,90722.06
2023-03-27T20:54:31.516Z,90723.28
2023-03-27T20:57:05.293Z,90721.44
2023-03-27T20:59:37.768Z,90719.72
2023-03-27T21:02:16.474Z,90723.19
2023-03-27T21:04:49.022Z,90716.03
2023-03-27T21:07:21.298Z,90724.69
2023-03-27T21:09:53.649Z,90725.91
2023-03-27T21:12:26.598Z,90728.38
2023-03-27T21:14:58.926Z,90725.56
2023-03-27T21:17:31.257Z,90719.16
2023-03-27T21:20:05.261Z,90717.88
2023-03-27T21:22:38.065Z,90723.34
2023-03-27T21:25:10.486Z,90723.06
2023-03-27T21:27:43.526Z,90736.50
2023-03-27T21:30:16.556Z,90721.59
2023-03-27T21:32:50.082Z,90714.44
2023-03-27T21:35:22.941Z,90717.44
2023-03-27T21:37:55.420Z,90716.09
2023-03-27T21:40:27.919Z,90727.56
2023-03-27T21:43:01.167Z,90708.03
2023-03-27T21:45:33.680Z,90719.97
2023-03-27T21:48:06.658Z,90730.94
2023-03-27T21:50:38.963Z,90737.72
2023-03-27T21:53:12.747Z,90722.50
2023-03-27T21:55:45.991Z,90733.56
2023-03-27T21:58:18.948Z,90751.25
2023-03-27T22:00:51.240Z,90745.63
2023-03-27T22:03:23.888Z,90747.47
2023-03-27T22:08:42.244Z,90745.91
2023-03-27T22:11:14.780Z,90740.97
2023-03-27T22:13:48.357Z,90754.13
2023-03-27T22:16:20.726Z,90758.13
2023-03-27T22:18:53.150Z,90768.19
2023-03-27T22:21:28.329Z,90772.47
2023-03-27T22:24:01.487Z,90776.16
2023-03-27T22:26:36.206Z,90793.13
2023-03-27T22:29:09.628Z,90810.91
2023-03-27T22:31:42.086Z,90808.41
2023-03-27T22:34:14.496Z,90807.44
2023-03-27T22:36:46.801Z,90813.72
2023-03-27T22:39:19.123Z,90814.50
2023-03-27T22:41:51.465Z,90820.41
2023-03-27T22:44:24.727Z,90835.41
2023-03-27T22:46:57.097Z,90856.50
2023-03-27T22:49:29.401Z,90856.63
2023-03-27T22:52:02.581Z,90865.69
2023-03-27T22:54:34.896Z,90853.47
2023-03-27T22:57:07.592Z,90863.72
2023-03-27T22:59:40.609Z,90868.75
2023-03-27T23:02:13.094Z,90880.41
2023-03-27T23:04:45.501Z,90892.03
2023-03-27T23:07:17.880Z,90890.00
2023-03-27T23:09:50.849Z,90911.25
2023-03-27T23:12:23.225Z,90920.78
2023-03-27T23:14:56.208Z,90924.00
2023-03-27T23:17:28.585Z,90916.03
2023-03-27T23:20:01.241Z,90938.09
2023-03-27T23:22:33.527Z,90951.28
2023-03-27T23:25:06.695Z,90952.09
2023-03-27T23:27:39.114Z,90955.44
2023-03-27T23:30:12.890Z,90967.56
2023-03-27T23:32:45.254Z,90975.38
2023-03-27T23:35:17.675Z,90975.56
2023-03-27T23:37:50.003Z,90979.63
2023-03-27T23:40:22.520Z,90979.75
2023-03-27T23:42:54.808Z,90980.50
2023-03-27T23:45:27.778Z,90986.53
2023-03-27T23:48:00.242Z,90991.00
2023-03-27T23:50:32.738Z,90983.00
2023-03-27T23:53:05.100Z,91001.94
2023-03-27T23:55:37.434Z,90982.56
2023-03-27T23:58:10.047Z,90997.41
